Time;durP1;ratioP1;P1;durP2;ratioP2;P2;SDS_P1;SDS_P2;PMS_P1;PMS_P2;Temp;Humidity;BMP_temperature;BMP_pressure;BME280_temperature;BME280_humidity;BME280_pressure;Samples;Min_cycle;Max_cycle;Signal;HPM_P1;HPM_P2
2023/10/23 00:02:08;;;;;;;13.80;13.30;;;10.20;99.90;;;;;;5030256;28;21461;-65
2023/10/23 00:04:35;;;;;;;16.30;15.70;;;10.30;99.90;;;;;;5029051;28;20653;-65
2023/10/23 00:07:02;;;;;;;15.10;14.60;;;10.40;99.90;;;;;;5030062;28;20585;-65
2023/10/23 00:09:28;;;;;;;14.67;14.07;;;10.40;99.90;;;;;;5029032;28;20611;-65
2023/10/23 00:11:55;;;;;;;14.00;13.50;;;10.40;99.90;;;;;;5029196;28;20231;-66
2023/10/23 00:14:23;;;;;;;14.23;13.73;;;10.30;99.90;;;;;;5030171;28;20667;-65
2023/10/23 00:16:50;;;;;;;15.10;14.60;;;10.20;99.90;;;;;;5031368;28;20207;-66
2023/10/23 00:19:17;;;;;;;13.60;13.10;;;10.20;99.90;;;;;;5032277;28;20204;-64
2023/10/23 00:21:44;;;;;;;14.20;13.70;;;10.20;99.90;;;;;;5031553;28;20220;-64
2023/10/23 00:24:11;;;;;;;14.27;13.77;;;10.20;99.90;;;;;;5031749;28;20292;-65
2023/10/23 00:26:38;;;;;;;15.37;14.87;;;10.10;99.90;;;;;;5036797;28;20239;-66
2023/10/23 00:29:05;;;;;;;14.70;14.20;;;10.10;99.90;;;;;;5032294;28;20311;-65
2023/10/23 00:31:33;;;;;;;15.30;14.80;;;10.00;99.90;;;;;;5032317;28;20209;-65
2023/10/23 00:34:00;;;;;;;13.67;13.10;;;10.00;99.90;;;;;;5031879;28;20212;-65
2023/10/23 00:36:26;;;;;;;14.37;13.87;;;9.90;99.90;;;;;;5031855;28;20196;-66
2023/10/23 00:38:53;;;;;;;15.60;15.10;;;9.80;99.90;;;;;;5031492;28;20243;-66
2023/10/23 00:41:20;;;;;;;15.83;15.33;;;9.80;99.90;;;;;;5026970;28;20659;-70
2023/10/23 00:43:46;;;;;;;15.10;14.60;;;9.70;99.90;;;;;;5033820;28;20211;-66
2023/10/23 00:46:15;;;;;;;15.43;14.93;;;9.70;99.90;;;;;;5033130;28;20220;-65
2023/10/23 00:48:44;;;;;;;23.10;22.20;;;9.70;99.90;;;;;;5033759;28;20554;-65
2023/10/23 00:51:12;;;;;;;16.60;16.00;;;9.60;99.90;;;;;;5032440;28;20644;-66
2023/10/23 00:53:41;;;;;;;16.67;16.07;;;9.50;99.90;;;;;;5031470;28;20719;-65
2023/10/23 00:56:09;;;;;;;17.77;17.17;;;9.50;99.90;;;;;;5031372;28;20648;-65
2023/10/23 00:58:39;;;;;;;16.80;16.20;;;9.50;99.90;;;;;;5032691;28;20215;-65
2023/10/23 01:01:05;;;;;;;18.23;17.53;;;9.40;99.90;;;;;;5031287;28;20239;-66
2023/10/23 01:03:32;;;;;;;18.00;17.40;;;9.40;99.90;;;;;;5032058;28;20220;-67
2023/10/23 01:06:00;;;;;;;17.57;16.97;;;9.30;99.90;;;;;;5031395;28;20237;-66
2023/10/23 01:08:27;;;;;;;18.77;18.07;;;9.30;99.90;;;;;;5031767;28;20640;-66
2023/10/23 01:10:55;;;;;;;17.67;17.07;;;9.20;99.90;;;;;;5031332;28;20211;-66
2023/10/23 01:13:22;;;;;;;18.37;17.67;;;9.20;99.90;;;;;;5027080;28;20593;-66
2023/10/23 01:15:48;;;;;;;18.50;17.87;;;9.20;99.90;;;;;;5031462;28;20235;-66
2023/10/23 01:18:15;;;;;;;17.20;16.60;;;9.20;99.90;;;;;;5031511;28;20316;-66
2023/10/23 01:20:42;;;;;;;17.03;16.43;;;9.30;99.90;;;;;;5031043;28;20331;-66
2023/10/23 01:23:10;;;;;;;16.03;15.43;;;9.30;99.90;;;;;;5031161;28;20228;-66
2023/10/23 01:25:39;;;;;;;16.33;15.73;;;9.30;99.90;;;;;;5030845;28;20671;-65
2023/10/23 01:28:06;;;;;;;15.80;15.27;;;9.40;99.90;;;;;;5032771;28;20209;-65
2023/10/23 01:30:33;;;;;;;16.57;15.97;;;9.50;99.90;;;;;;5031379;28;20220;-65
2023/10/23 01:33:00;;;;;;;16.87;16.27;;;9.50;99.90;;;;;;5030857;28;20228;-65
2023/10/23 01:35:26;;;;;;;17.53;16.93;;;9.60;99.90;;;;;;5031315;28;20208;-65
2023/10/23 01:37:53;;;;;;;17.03;16.43;;;9.60;99.90;;;;;;5031048;28;20209;-66
2023/10/23 01:40:20;;;;;;;15.77;15.27;;;9.60;99.90;;;;;;5030335;28;20207;-65
2023/10/23 01:42:48;;;;;;;16.63;16.03;;;9.60;99.90;;;;;;5030646;28;20252;-66
2023/10/23 01:45:15;;;;;;;19.33;18.63;;;9.60;99.90;;;;;;5029772;28;20295;-64
2023/10/23 01:47:42;;;;;;;16.07;15.50;;;9.50;99.90;;;;;;5030761;28;20225;-66
2023/10/23 01:50:09;;;;;;;15.97;15.40;;;9.50;99.90;;;;;;5030075;28;20213;-67
2023/10/23 01:52:36;;;;;;;16.67;16.07;;;9.50;99.90;;;;;;5030443;28;20220;-66
2023/10/23 01:55:03;;;;;;;16.47;15.87;;;9.40;99.90;;;;;;5029916;28;20212;-65
2023/10/23 01:57:30;;;;;;;16.87;16.27;;;9.40;99.90;;;;;;5030502;28;20211;-65
2023/10/23 02:00:04;;;;;;;17.93;17.23;;;9.30;99.90;;;;;;5030877;28;20204;-66
2023/10/23 02:02:30;;;;;;;17.60;17.00;;;9.20;99.90;;;;;;5030368;28;20324;-66
2023/10/23 02:04:57;;;;;;;17.10;16.50;;;9.10;99.90;;;;;;5030710;28;20262;-65
2023/10/23 02:07:24;;;;;;;16.73;16.13;;;9.10;99.90;;;;;;5030638;28;20220;-65
2023/10/23 02:09:51;;;;;;;17.70;17.10;;;9.10;99.90;;;;;;5030118;28;20228;-65
2023/10/23 02:12:17;;;;;;;17.77;17.07;;;9.10;99.90;;;;;;5030293;28;20216;-66
2023/10/23 02:14:44;;;;;;;18.67;17.97;;;9.10;99.90;;;;;;5030168;28;20200;-66
2023/10/23 02:17:12;;;;;;;19.40;18.70;;;9.10;99.90;;;;;;5030320;28;20304;-65
2023/10/23 02:19:39;;;;;;;18.07;17.47;;;9.10;99.90;;;;;;5030046;28;20216;-66
2023/10/23 02:22:05;;;;;;;19.27;18.57;;;9.00;99.90;;;;;;5029687;28;20572;-66
2023/10/23 02:24:32;;;;;;;19.30;18.60;;;9.00;99.90;;;;;;5029860;28;20216;-66
2023/10/23 02:26:59;;;;;;;18.43;17.83;;;9.00;99.90;;;;;;5030155;28;20252;-65
2023/10/23 02:29:26;;;;;;;19.47;18.77;;;9.00;99.90;;;;;;5031783;28;20211;-65
2023/10/23 02:31:52;;;;;;;20.13;19.43;;;9.00;99.90;;;;;;5031988;28;20229;-65
2023/10/23 02:34:20;;;;;;;17.77;17.17;;;9.00;99.90;;;;;;5031586;28;20221;-66
2023/10/23 02:36:47;;;;;;;18.23;17.63;;;9.00;99.90;;;;;;5031024;28;20541;-65
2023/10/23 02:39:14;;;;;;;17.77;17.17;;;8.90;99.90;;;;;;5030387;28;20215;-66
2023/10/23 02:41:41;;;;;;;19.60;18.90;;;8.80;99.90;;;;;;5030824;28;20220;-65
2023/10/23 02:44:08;;;;;;;19.13;18.43;;;8.80;99.90;;;;;;5030442;28;20323;-66
2023/10/23 02:46:35;;;;;;;18.63;17.83;;;8.70;99.90;;;;;;5029797;28;20282;-66
2023/10/23 02:49:04;;;;;;;26.27;25.27;;;8.80;99.90;;;;;;5029877;28;20200;-66
2023/10/23 02:51:32;;;;;;;20.53;19.83;;;8.80;99.90;;;;;;5029351;28;20209;-65
2023/10/23 02:53:58;;;;;;;18.50;17.87;;;8.80;99.90;;;;;;5029910;28;20209;-64
2023/10/23 02:56:25;;;;;;;18.90;18.20;;;8.90;99.90;;;;;;5029763;28;20205;-66
2023/10/23 02:58:52;;;;;;;19.10;18.40;;;8.90;99.90;;;;;;5029870;28;20201;-63
2023/10/23 03:01:23;;;;;;;18.53;17.93;;;8.90;99.90;;;;;;5029171;28;20259;-65
2023/10/23 03:03:50;;;;;;;18.60;18.00;;;8.90;99.90;;;;;;5029632;28;20259;-66
2023/10/23 03:06:17;;;;;;;18.07;17.37;;;8.90;99.90;;;;;;5029820;28;20232;-65
2023/10/23 03:08:45;;;;;;;19.10;18.40;;;8.90;99.90;;;;;;5034123;28;20209;-64
2023/10/23 03:11:12;;;;;;;18.47;17.77;;;8.90;99.90;;;;;;5033994;28;20200;-66
2023/10/23 03:13:39;;;;;;;17.93;17.33;;;8.80;99.90;;;;;;5034250;28;20362;-66
2023/10/23 03:16:05;;;;;;;18.03;17.33;;;8.80;99.90;;;;;;5033430;28;20304;-64
2023/10/23 03:18:32;;;;;;;18.50;17.80;;;8.70;99.90;;;;;;5033822;28;20197;-64
2023/10/23 03:21:00;;;;;;;19.83;19.13;;;8.70;99.90;;;;;;5030268;28;20223;-65
2023/10/23 03:23:27;;;;;;;18.90;18.20;;;8.70;99.90;;;;;;5033888;28;20232;-65
2023/10/23 03:25:56;;;;;;;18.57;17.90;;;8.60;99.90;;;;;;5034755;28;20209;-65
2023/10/23 03:28:22;;;;;;;16.70;16.10;;;8.60;99.90;;;;;;5036518;28;20274;-66
2023/10/23 03:30:49;;;;;;;17.80;17.20;;;8.60;99.90;;;;;;5043007;28;20723;-65
2023/10/23 03:33:16;;;;;;;17.70;17.10;;;8.60;99.90;;;;;;5048070;28;20271;-69
2023/10/23 03:35:43;;;;;;;16.67;16.07;;;8.70;99.90;;;;;;5046295;28;20276;-66
2023/10/23 03:38:10;;;;;;;18.30;17.70;;;8.70;99.90;;;;;;5046411;28;20208;-65
2023/10/23 03:40:37;;;;;;;18.13;17.43;;;8.70;99.90;;;;;;5045805;28;20232;-65
2023/10/23 03:43:05;;;;;;;17.73;17.13;;;8.80;99.90;;;;;;5041239;28;20630;-66
2023/10/23 03:45:35;;;;;;;18.63;17.93;;;8.80;99.90;;;;;;5038210;28;20213;-66
2023/10/23 03:48:02;;;;;;;16.97;16.37;;;8.90;99.90;;;;;;5032216;28;20243;-66
2023/10/23 03:50:29;;;;;;;15.77;15.17;;;8.90;99.90;;;;;;5032885;28;20575;-66
2023/10/23 03:52:56;;;;;;;17.37;16.77;;;8.90;99.90;;;;;;5033225;28;20232;-65
2023/10/23 03:55:22;;;;;;;17.17;16.57;;;8.90;99.90;;;;;;5032558;28;20670;-65
2023/10/23 03:57:49;;;;;;;16.63;16.03;;;8.90;99.90;;;;;;5033102;28;20228;-66
2023/10/23 04:00:18;;;;;;;18.83;18.13;;;8.80;99.90;;;;;;5032446;28;20209;-66
2023/10/23 04:02:45;;;;;;;17.17;16.53;;;8.80;99.90;;;;;;5033413;28;20228;-66
2023/10/23 04:05:12;;;;;;;16.47;15.87;;;8.70;99.90;;;;;;5033045;28;20204;-65
2023/10/23 04:07:39;;;;;;;18.63;17.83;;;8.70;99.90;;;;;;5032808;28;20228;-66
2023/10/23 04:10:08;;;;;;;17.67;17.07;;;8.70;99.90;;;;;;5032917;28;20205;-64
2023/10/23 04:12:34;;;;;;;18.00;17.40;;;8.70;99.90;;;;;;5032266;28;20248;-66
2023/10/23 04:15:01;;;;;;;18.03;17.43;;;8.70;99.90;;;;;;5032897;28;20212;-65
2023/10/23 04:17:29;;;;;;;17.40;16.80;;;8.60;99.90;;;;;;5033879;28;20247;-65
2023/10/23 04:19:56;;;;;;;16.20;15.60;;;8.50;99.90;;;;;;5035895;28;20208;-65
2023/10/23 04:22:23;;;;;;;16.70;16.10;;;8.60;99.90;;;;;;5032884;28;20232;-64
2023/10/23 04:24:53;;;;;;;18.10;17.43;;;8.60;99.90;;;;;;5032326;28;20200;-66
2023/10/23 04:27:19;;;;;;;17.13;16.53;;;8.50;99.90;;;;;;5032077;28;20285;-66
2023/10/23 04:29:46;;;;;;;17.80;17.20;;;8.50;99.90;;;;;;5032683;28;20671;-66
2023/10/23 04:32:13;;;;;;;18.07;17.40;;;8.40;99.90;;;;;;5031962;28;20228;-65
2023/10/23 04:34:41;;;;;;;17.20;16.60;;;8.40;99.90;;;;;;5032099;28;20204;-64
2023/10/23 04:37:07;;;;;;;17.73;17.13;;;8.50;99.90;;;;;;5032007;28;20561;-64
2023/10/23 04:39:34;;;;;;;17.97;17.37;;;8.50;99.90;;;;;;5032485;28;20205;-66
2023/10/23 04:42:01;;;;;;;16.83;16.23;;;8.50;99.90;;;;;;5031359;28;20237;-66
2023/10/23 04:44:28;;;;;;;16.60;16.00;;;8.40;99.90;;;;;;5027910;28;20204;-64
2023/10/23 04:46:55;;;;;;;16.83;16.23;;;8.40;99.90;;;;;;5032078;28;20204;-65
2023/10/23 04:49:21;;;;;;;16.97;16.37;;;8.40;99.90;;;;;;5031442;28;20205;-65
2023/10/23 04:51:49;;;;;;;17.52;16.83;;;8.40;99.90;;;;;;5031418;28;20223;-65
2023/10/23 04:54:16;;;;;;;17.57;16.97;;;8.50;99.90;;;;;;5031628;28;20215;-65
2023/10/23 04:56:43;;;;;;;17.13;16.53;;;8.50;99.90;;;;;;5031903;28;20204;-65
2023/10/23 04:59:09;;;;;;;16.57;15.97;;;8.50;99.90;;;;;;5031709;28;20208;-65
2023/10/23 05:01:36;;;;;;;17.63;17.03;;;8.40;99.90;;;;;;5033945;28;20556;-65
2023/10/23 05:04:03;;;;;;;17.33;16.73;;;8.40;99.90;;;;;;5031611;28;20211;-65
2023/10/23 05:06:30;;;;;;;16.57;15.97;;;8.50;99.90;;;;;;5031818;28;20730;-64
2023/10/23 05:08:58;;;;;;;18.07;17.47;;;8.50;99.90;;;;;;5031536;28;20228;-65
2023/10/23 05:11:25;;;;;;;16.33;15.73;;;8.50;99.90;;;;;;5031310;28;20216;-66
2023/10/23 05:13:52;;;;;;;15.20;14.70;;;8.50;99.90;;;;;;5034397;28;20299;-65
2023/10/23 05:16:18;;;;;;;15.50;14.93;;;8.50;99.90;;;;;;5034900;28;20200;-65
2023/10/23 05:18:45;;;;;;;15.40;14.90;;;8.50;99.90;;;;;;5039894;28;20205;-66
2023/10/23 05:21:13;;;;;;;17.00;16.40;;;8.50;99.90;;;;;;5039907;28;20200;-65
2023/10/23 05:23:41;;;;;;;15.83;15.30;;;8.50;99.90;;;;;;5039092;28;20373;-66
2023/10/23 05:26:10;;;;;;;16.17;15.57;;;8.60;99.90;;;;;;5042838;28;20268;-65
2023/10/23 05:28:39;;;;;;;16.43;15.83;;;8.60;99.90;;;;;;5041542;28;20221;-67
2023/10/23 05:31:06;;;;;;;15.47;14.97;;;8.70;99.90;;;;;;5032743;28;20270;-65
2023/10/23 05:33:33;;;;;;;16.48;15.88;;;8.70;99.90;;;;;;5031912;28;20304;-65
2023/10/23 05:36:04;;;;;;;17.00;16.40;;;8.70;99.90;;;;;;5029297;28;20200;-64
2023/10/23 05:38:31;;;;;;;15.93;15.33;;;8.70;99.90;;;;;;5031087;28;20224;-66
2023/10/23 05:40:58;;;;;;;16.80;16.20;;;8.70;99.90;;;;;;5031187;28;20201;-65
2023/10/23 05:43:27;;;;;;;16.37;15.77;;;8.70;99.90;;;;;;5031726;28;20237;-65
2023/10/23 05:45:54;;;;;;;16.57;15.97;;;8.70;99.90;;;;;;5029112;28;20215;-65
2023/10/23 05:48:21;;;;;;;17.67;17.03;;;8.60;99.90;;;;;;5028241;28;20224;-65
2023/10/23 05:50:58;;;;;;;16.47;15.87;;;8.60;99.90;;;;;;5029672;28;20205;-64
2023/10/23 05:53:25;;;;;;;15.83;15.23;;;8.60;99.90;;;;;;5030794;28;20232;-65
2023/10/23 05:55:51;;;;;;;16.53;15.93;;;8.70;99.90;;;;;;5031049;28;20201;-63
2023/10/23 05:58:18;;;;;;;14.83;14.33;;;8.70;99.90;;;;;;5031636;28;20295;-65
2023/10/23 06:00:46;;;;;;;16.23;15.63;;;8.70;99.90;;;;;;5030596;28;20201;-65
2023/10/23 06:03:13;;;;;;;17.23;16.53;;;8.70;99.90;;;;;;5029040;28;20658;-66
2023/10/23 06:05:40;;;;;;;16.60;16.00;;;8.80;99.90;;;;;;5028543;28;20207;-66
2023/10/23 06:08:07;;;;;;;17.87;17.17;;;8.80;99.90;;;;;;5029735;28;20648;-65
2023/10/23 06:10:40;;;;;;;18.13;17.53;;;8.90;99.90;;;;;;5029707;28;20205;-66
2023/10/23 06:13:07;;;;;;;18.70;18.00;;;8.90;99.90;;;;;;5029607;28;20786;-66
2023/10/23 06:15:34;;;;;;;17.13;16.53;;;8.90;99.90;;;;;;5029989;28;20203;-65
2023/10/23 06:18:02;;;;;;;17.33;16.73;;;9.00;99.90;;;;;;5031104;28;20201;-64
2023/10/23 06:20:29;;;;;;;16.60;16.00;;;9.00;99.90;;;;;;5030477;28;20632;-65
2023/10/23 06:22:56;;;;;;;16.20;15.60;;;9.00;99.90;;;;;;5032178;28;20232;-65
2023/10/23 06:25:23;;;;;;;16.80;16.20;;;9.00;99.90;;;;;;5031757;28;20204;-64
2023/10/23 06:27:49;;;;;;;15.37;14.87;;;9.10;99.90;;;;;;5032098;28;20220;-64
2023/10/23 06:30:16;;;;;;;15.90;15.30;;;9.10;99.90;;;;;;5033247;28;20596;-65
2023/10/23 06:32:43;;;;;;;15.53;15.03;;;9.20;99.90;;;;;;5034063;28;20232;-64
2023/10/23 06:35:11;;;;;;;16.13;15.53;;;9.30;99.90;;;;;;5031482;28;20201;-65
2023/10/23 06:37:38;;;;;;;15.93;15.33;;;9.40;99.90;;;;;;5031660;28;20204;-66
2023/10/23 06:40:06;;;;;;;15.07;14.57;;;9.40;99.90;;;;;;5029985;28;20250;-64
2023/10/23 06:42:33;;;;;;;15.77;15.17;;;9.50;99.90;;;;;;5029802;28;20793;-65
2023/10/23 06:45:00;;;;;;;13.67;13.17;;;9.50;99.90;;;;;;5031718;28;20310;-65
2023/10/23 06:47:26;;;;;;;14.90;14.40;;;9.60;99.90;;;;;;5034487;28;20201;-65
2023/10/23 06:49:53;;;;;;;14.47;13.97;;;9.60;99.90;;;;;;5034513;28;20205;-65
2023/10/23 06:52:21;;;;;;;14.60;14.00;;;9.60;99.90;;;;;;5034843;28;20232;-65
2023/10/23 06:54:48;;;;;;;13.37;12.87;;;9.60;99.90;;;;;;5034320;28;20209;-64
2023/10/23 06:57:15;;;;;;;13.57;13.07;;;9.60;99.90;;;;;;5034223;28;20204;-64
2023/10/23 06:59:41;;;;;;;13.43;12.93;;;9.80;99.90;;;;;;5034792;28;20201;-64
2023/10/23 07:02:09;;;;;;;13.63;13.13;;;9.90;99.90;;;;;;5035399;28;20228;-65
2023/10/23 07:04:35;;;;;;;12.57;11.97;;;10.00;99.90;;;;;;5036120;28;20204;-66
2023/10/23 07:07:02;;;;;;;13.00;12.60;;;10.00;99.90;;;;;;5035324;28;20200;-65
2023/10/23 07:09:31;;;;;;;13.40;12.90;;;10.10;99.90;;;;;;5034441;28;20617;-65
2023/10/23 07:11:58;;;;;;;14.37;13.87;;;10.10;99.90;;;;;;5033565;28;20220;-65
2023/10/23 07:14:24;;;;;;;13.77;13.27;;;10.10;99.90;;;;;;5034409;28;20219;-65
2023/10/23 07:16:51;;;;;;;13.30;12.70;;;10.10;99.90;;;;;;5034436;28;20208;-66
2023/10/23 07:19:18;;;;;;;12.70;12.30;;;10.10;99.90;;;;;;5035041;28;20193;-64
2023/10/23 07:21:45;;;;;;;12.63;12.23;;;10.20;99.90;;;;;;5035151;28;20706;-65
2023/10/23 07:24:11;;;;;;;12.90;12.40;;;10.30;99.90;;;;;;5036007;28;20216;-65
2023/10/23 07:26:39;;;;;;;13.30;12.80;;;10.30;99.90;;;;;;5037026;28;20682;-66
2023/10/23 07:29:06;;;;;;;12.70;12.30;;;10.40;99.90;;;;;;5037299;28;20225;-67
2023/10/23 07:31:33;;;;;;;14.00;13.50;;;10.30;99.90;;;;;;5036246;28;20747;-68
2023/10/23 07:33:59;;;;;;;12.70;12.30;;;10.30;99.90;;;;;;5035185;28;20207;-67
2023/10/23 07:36:26;;;;;;;14.00;13.50;;;10.30;99.90;;;;;;5041482;28;20268;-65
2023/10/23 07:38:53;;;;;;;14.73;14.23;;;10.40;99.90;;;;;;5051191;28;20203;-66
2023/10/23 07:41:19;;;;;;;13.70;13.20;;;10.40;99.90;;;;;;5047665;28;20215;-66
2023/10/23 07:43:47;;;;;;;13.83;13.33;;;10.40;99.90;;;;;;5048271;28;20215;-65
2023/10/23 07:46:14;;;;;;;13.83;13.33;;;10.40;99.90;;;;;;5039118;28;20216;-64
2023/10/23 07:48:41;;;;;;;13.37;12.87;;;10.40;99.90;;;;;;5043478;28;20722;-64
2023/10/23 07:51:08;;;;;;;13.43;12.93;;;10.30;99.90;;;;;;5034262;28;20207;-66
2023/10/23 07:53:35;;;;;;;14.93;14.43;;;10.30;99.90;;;;;;5032988;28;20221;-65
2023/10/23 07:56:04;;;;;;;14.90;14.30;;;10.40;99.90;;;;;;5033948;28;20263;-65
2023/10/23 07:58:30;;;;;;;16.20;15.60;;;10.20;99.90;;;;;;5034152;28;20932;-66
2023/10/23 08:01:05;;;;;;;14.23;13.73;;;10.10;99.90;;;;;;5033738;28;20205;-65
2023/10/23 08:03:33;;;;;;;15.63;15.03;;;10.20;99.90;;;;;;5033471;28;20239;-65
2023/10/23 08:06:00;;;;;;;14.17;13.67;;;10.20;99.90;;;;;;5030059;28;20201;-64
2023/10/23 08:08:27;;;;;;;16.03;15.40;;;10.20;99.90;;;;;;5032659;28;20232;-65
2023/10/23 08:10:53;;;;;;;14.67;14.10;;;10.30;99.90;;;;;;5033069;28;20215;-65
2023/10/23 08:13:20;;;;;;;15.63;15.03;;;10.30;99.90;;;;;;5033171;28;20232;-65
2023/10/23 08:15:47;;;;;;;18.10;17.30;;;10.30;99.90;;;;;;5033037;28;20216;-65
2023/10/23 08:18:15;;;;;;;16.83;16.23;;;10.20;99.90;;;;;;5032911;28;20208;-65
2023/10/23 08:20:41;;;;;;;17.77;17.07;;;10.10;99.90;;;;;;5032748;28;20231;-65
2023/10/23 08:23:08;;;;;;;17.90;17.13;;;10.20;99.90;;;;;;5032914;28;20244;-65
2023/10/23 08:25:35;;;;;;;17.53;16.93;;;10.20;99.90;;;;;;5032927;28;20205;-65
2023/10/23 08:28:02;;;;;;;17.47;16.87;;;10.20;99.90;;;;;;5032665;28;20216;-64
2023/10/23 08:30:29;;;;;;;20.63;19.90;;;10.20;99.90;;;;;;5032727;28;20201;-64
2023/10/23 08:32:56;;;;;;;18.97;18.17;;;10.20;99.90;;;;;;5033125;28;20260;-66
2023/10/23 08:35:27;;;;;;;20.40;19.70;;;10.10;99.90;;;;;;5032609;28;20205;-66
2023/10/23 08:37:54;;;;;;;19.50;18.63;;;10.10;99.90;;;;;;5032552;28;20344;-65
2023/10/23 08:40:21;;;;;;;18.87;18.17;;;10.10;99.90;;;;;;5032458;28;20711;-66
2023/10/23 08:42:48;;;;;;;18.33;17.73;;;10.10;99.90;;;;;;5032247;28;20234;-65
2023/10/23 08:45:16;;;;;;;18.53;17.83;;;10.10;99.90;;;;;;5032445;28;20236;-66
2023/10/23 08:47:43;;;;;;;19.00;18.30;;;10.10;99.90;;;;;;5032916;28;20200;-65
2023/10/23 08:50:11;;;;;;;18.20;17.53;;;10.20;99.90;;;;;;5032262;28;20229;-64
2023/10/23 08:52:44;;;;;;;17.60;16.90;;;10.20;99.90;;;;;;5032377;28;20221;-64
2023/10/23 08:55:12;;;;;;;18.57;17.87;;;10.20;99.90;;;;;;5032274;28;20228;-66
2023/10/23 08:57:43;;;;;;;17.60;17.00;;;10.20;99.90;;;;;;5029296;28;20204;-66
2023/10/23 09:00:11;;;;;;;17.90;17.30;;;10.30;99.90;;;;;;5032094;28;20216;-65
2023/10/23 09:02:38;;;;;;;15.57;14.97;;;10.50;99.90;;;;;;5032132;28;20236;-64
2023/10/23 09:05:06;;;;;;;15.83;15.30;;;10.50;99.90;;;;;;5032232;28;20197;-64
2023/10/23 09:07:33;;;;;;;15.73;15.13;;;10.40;99.90;;;;;;5032630;28;20208;-64
2023/10/23 09:10:03;;;;;;;16.97;16.37;;;10.50;99.90;;;;;;5028765;28;20651;-64
2023/10/23 09:12:31;;;;;;;14.90;14.40;;;10.60;99.90;;;;;;5031347;28;20683;-65
2023/10/23 09:14:59;;;;;;;14.73;14.23;;;10.70;99.90;;;;;;5031844;28;20228;-66
2023/10/23 09:17:27;;;;;;;15.37;14.87;;;10.80;99.90;;;;;;5035352;28;20209;-65
2023/10/23 09:19:53;;;;;;;15.60;15.10;;;10.90;99.90;;;;;;5033629;28;20193;-65
2023/10/23 09:22:20;;;;;;;15.97;15.40;;;10.90;99.90;;;;;;5032066;28;20594;-66
2023/10/23 09:24:47;;;;;;;14.63;13.97;;;11.00;99.90;;;;;;5032002;28;20201;-66
2023/10/23 09:27:15;;;;;;;16.20;15.60;;;11.00;99.90;;;;;;5032163;28;20231;-65
2023/10/23 09:29:42;;;;;;;17.23;16.63;;;10.90;99.90;;;;;;5031368;28;20224;-65
2023/10/23 09:32:08;;;;;;;17.60;17.00;;;10.90;99.90;;;;;;5031558;28;20225;-66
2023/10/23 09:34:41;;;;;;;16.87;16.27;;;10.90;99.90;;;;;;5032435;28;20212;-64
2023/10/23 09:37:08;;;;;;;16.70;16.10;;;11.00;99.90;;;;;;5031326;28;20275;-65
2023/10/23 09:39:37;;;;;;;17.27;16.67;;;11.00;99.90;;;;;;5031558;28;20587;-68
2023/10/23 09:42:07;;;;;;;18.87;18.17;;;11.00;99.90;;;;;;5031341;28;20382;-64
2023/10/23 09:44:37;;;;;;;17.10;16.50;;;11.00;99.90;;;;;;5031852;28;20303;-66
2023/10/23 09:47:06;;;;;;;17.97;17.30;;;10.90;99.90;;;;;;5031074;28;20200;-65
2023/10/23 09:49:33;;;;;;;17.27;16.57;;;10.90;99.90;;;;;;5041645;28;20227;-65
2023/10/23 09:52:01;;;;;;;17.17;16.57;;;10.90;99.90;;;;;;5037625;28;20236;-65
2023/10/23 09:54:31;;;;;;;15.77;15.23;;;11.00;99.90;;;;;;5036291;28;20231;-65
2023/10/23 09:57:04;;;;;;;17.10;16.40;;;11.10;99.90;;;;;;5034918;28;20570;-65
2023/10/23 09:59:39;;;;;;;18.17;17.57;;;11.20;99.90;;;;;;5031749;28;20741;-65
2023/10/23 10:02:07;;;;;;;17.10;16.50;;;11.30;99.90;;;;;;5028529;28;20231;-64
2023/10/23 10:04:42;;;;;;;15.70;15.10;;;11.20;99.90;;;;;;5031151;28;20311;-65
2023/10/23 10:07:12;;;;;;;15.10;14.60;;;11.30;99.90;;;;;;5029665;28;20208;-64
2023/10/23 10:09:39;;;;;;;15.00;14.50;;;11.40;99.90;;;;;;5031376;28;20236;-64
2023/10/23 10:12:07;;;;;;;15.17;14.67;;;11.50;99.90;;;;;;5031382;28;20735;-65
2023/10/23 10:14:34;;;;;;;14.80;14.30;;;11.60;99.90;;;;;;5030991;28;20213;-65
2023/10/23 10:17:03;;;;;;;14.30;13.80;;;11.70;99.90;;;;;;5027957;28;20246;-66
2023/10/23 10:19:31;;;;;;;13.67;13.17;;;12.00;99.90;;;;;;5031193;28;20225;-66
2023/10/23 10:22:05;;;;;;;13.57;13.07;;;11.90;99.90;;;;;;5031088;28;20224;-65
2023/10/23 10:24:33;;;;;;;13.60;13.10;;;12.10;99.90;;;;;;5031847;28;20227;-65
2023/10/23 10:27:03;;;;;;;13.83;13.33;;;12.20;99.90;;;;;;5028322;28;20205;-66
2023/10/23 10:29:31;;;;;;;13.83;13.33;;;12.30;99.90;;;;;;5030576;28;20761;-66
2023/10/23 10:32:07;;;;;;;14.33;13.83;;;12.40;99.90;;;;;;5030524;28;20267;-66
2023/10/23 10:34:35;;;;;;;14.80;14.20;;;12.50;99.90;;;;;;5030627;28;20262;-66
2023/10/23 10:37:04;;;;;;;15.93;15.33;;;12.50;99.90;;;;;;5027807;28;20224;-65
2023/10/23 10:40:06;;;;;;;15.93;15.33;;;12.60;99.90;;;;;;5030806;28;20200;-65
2023/10/23 10:42:40;;;;;;;14.80;14.30;;;12.50;99.90;;;;;;5028684;28;20223;-64
2023/10/23 10:45:14;;;;;;;15.73;15.17;;;12.40;99.90;;;;;;5028484;28;20204;-64
2023/10/23 10:47:46;;;;;;;19.97;19.27;;;12.30;99.90;;;;;;5031333;28;20585;-65
2023/10/23 10:50:13;;;;;;;17.13;16.53;;;12.00;99.90;;;;;;5030684;28;20217;-65
2023/10/23 10:52:41;;;;;;;13.63;13.13;;;11.80;99.90;;;;;;5030697;28;20224;-65
2023/10/23 10:55:10;;;;;;;17.93;17.23;;;11.80;99.90;;;;;;5031048;28;20204;-64
2023/10/23 10:57:37;;;;;;;18.53;17.90;;;11.80;99.90;;;;;;5032721;28;20208;-64
2023/10/23 11:00:05;;;;;;;18.27;17.57;;;11.70;99.90;;;;;;5032371;28;20207;-66
2023/10/23 11:02:32;;;;;;;19.00;18.30;;;11.50;99.90;;;;;;5030542;28;20240;-65
2023/10/23 11:05:07;;;;;;;21.80;21.00;;;11.40;99.90;;;;;;5030591;28;20201;-65
2023/10/23 11:07:34;;;;;;;21.43;20.70;;;11.30;99.90;;;;;;5030682;28;20216;-65
2023/10/23 11:10:01;;;;;;;21.63;20.83;;;11.20;99.90;;;;;;5027259;28;20231;-66
2023/10/23 11:12:27;;;;;;;22.23;21.33;;;11.10;99.90;;;;;;5029925;28;20232;-65
2023/10/23 11:14:54;;;;;;;24.17;23.27;;;11.10;99.90;;;;;;5030488;28;20296;-66
2023/10/23 11:17:21;;;;;;;24.13;23.23;;;11.20;99.90;;;;;;5030754;28;20215;-66
2023/10/23 11:19:48;;;;;;;26.33;25.33;;;11.10;99.90;;;;;;5028883;28;20764;-66
2023/10/23 11:22:18;;;;;;;20.50;19.70;;;11.10;99.90;;;;;;5030386;28;20259;-64
2023/10/23 11:24:46;;;;;;;24.47;23.57;;;11.00;99.90;;;;;;5030925;28;20209;-64
2023/10/23 11:27:13;;;;;;;23.03;22.13;;;11.00;99.90;;;;;;5031652;28;20201;-64
2023/10/23 11:29:41;;;;;;;24.10;23.17;;;11.10;99.90;;;;;;5043757;28;20230;-65
2023/10/23 11:32:08;;;;;;;23.70;22.80;;;11.00;99.90;;;;;;5046351;28;20224;-66
2023/10/23 11:34:37;;;;;;;23.37;22.47;;;11.00;99.90;;;;;;5043785;28;20204;-66
2023/10/23 11:37:05;;;;;;;20.90;20.10;;;11.00;99.90;;;;;;5031274;28;20639;-65
2023/10/23 11:39:35;;;;;;;20.00;19.30;;;11.00;99.90;;;;;;5034343;28;20197;-65
2023/10/23 11:42:02;;;;;;;19.27;18.57;;;11.00;99.90;;;;;;5031356;28;20243;-64
2023/10/23 11:44:30;;;;;;;18.17;17.53;;;11.20;99.90;;;;;;5033631;28;20216;-65
2023/10/23 11:46:58;;;;;;;17.60;17.00;;;11.50;99.90;;;;;;5033624;28;20556;-65
2023/10/23 11:49:25;;;;;;;18.90;18.20;;;11.70;99.90;;;;;;5033392;28;20239;-64
2023/10/23 11:51:53;;;;;;;19.27;18.57;;;11.70;99.90;;;;;;5033971;28;20220;-65
2023/10/23 11:54:19;;;;;;;20.93;20.13;;;11.80;99.90;;;;;;5033937;28;20209;-65
2023/10/23 11:56:47;;;;;;;20.10;19.40;;;11.70;99.90;;;;;;5034075;28;20211;-65
2023/10/23 11:59:18;;;;;;;18.33;17.70;;;11.60;99.90;;;;;;5033747;28;20201;-64
2023/10/23 12:01:45;;;;;;;18.80;18.10;;;11.70;99.90;;;;;;5032963;28;20236;-65
2023/10/23 12:04:13;;;;;;;17.57;16.97;;;11.70;99.90;;;;;;5033765;28;20577;-65
2023/10/23 12:06:40;;;;;;;17.43;16.83;;;11.70;99.90;;;;;;5033743;28;20209;-66
2023/10/23 12:09:09;;;;;;;18.20;17.50;;;11.80;99.90;;;;;;5033747;28;20208;-65
2023/10/23 12:11:35;;;;;;;17.70;17.10;;;11.90;99.90;;;;;;5032995;28;20211;-65
2023/10/23 12:14:04;;;;;;;17.27;16.67;;;11.90;99.90;;;;;;5033403;28;20205;-65
2023/10/23 12:16:31;;;;;;;17.97;17.37;;;12.00;99.90;;;;;;5034159;28;20672;-64
2023/10/23 12:18:58;;;;;;;16.77;16.17;;;12.10;99.90;;;;;;5032646;28;20207;-67
2023/10/23 12:21:25;;;;;;;17.73;17.13;;;12.10;99.90;;;;;;5033356;28;20205;-64
2023/10/23 12:23:52;;;;;;;16.83;16.23;;;12.10;99.90;;;;;;5033172;28;20212;-66
2023/10/23 12:26:19;;;;;;;16.80;16.20;;;12.00;99.90;;;;;;5032691;28;20205;-64
2023/10/23 12:28:46;;;;;;;17.10;16.50;;;11.90;99.90;;;;;;5032587;28;20201;-67
2023/10/23 12:31:14;;;;;;;16.93;16.33;;;12.00;99.90;;;;;;5032868;28;20606;-66
2023/10/23 12:33:42;;;;;;;17.23;16.63;;;12.10;99.90;;;;;;5032285;28;20711;-65
2023/10/23 12:36:09;;;;;;;16.47;15.87;;;12.00;99.90;;;;;;5033013;28;20200;-66